Time;durP1;ratioP1;P1;durP2;ratioP2;P2;SDS_P1;SDS_P2;PMS_P1;PMS_P2;Temp;Humidity;BMP_temperature;BMP_pressure;BME280_temperature;BME280_humidity;BME280_pressure;Samples;Min_cycle;Max_cycle;Signal;HPM_P1;HPM_P2
2022/10/28 00:02:07;;;;;;;20.23;9.40;;;;;;;;;;5069849;28;20127;-66
2022/10/28 00:04:33;;;;;;;17.67;9.13;;;;;;;;;;5069619;28;20044;-66
2022/10/28 00:06:59;;;;;;;16.90;9.77;;;;;;;;;;5070659;28;20032;-66
2022/10/28 00:09:25;;;;;;;18.25;9.50;;;;;;;;;;5079420;28;20110;-66
2022/10/28 00:11:51;;;;;;;17.42;9.52;;;;;;;;;;5071352;28;20482;-66
2022/10/28 00:14:17;;;;;;;13.80;8.95;;;;;;;;;;5070297;28;20047;-66
2022/10/28 00:16:44;;;;;;;18.52;9.48;;;;;;;;;;5076242;28;20040;-66
2022/10/28 00:19:10;;;;;;;17.00;9.32;;;;;;;;;;5076996;28;20037;-66
2022/10/28 00:21:38;;;;;;;13.05;8.57;;;;;;;;;;5062174;28;20135;-66
2022/10/28 00:24:05;;;;;;;16.90;9.52;;;;;;;;;;5070373;28;20045;-66
2022/10/28 00:26:32;;;;;;;17.25;9.35;;;;;;;;;;5068985;28;20398;-66
2022/10/28 00:29:08;;;;;;;14.43;9.10;;;;;;;;;;5087019;28;20041;-66
2022/10/28 00:31:35;;;;;;;17.42;9.75;;;;;;;;;;5069924;28;20109;-66
2022/10/28 00:34:03;;;;;;;20.08;10.30;;;;;;;;;;5070393;28;20112;-66
2022/10/28 00:36:33;;;;;;;19.55;10.65;;;;;;;;;;5068743;28;20559;-66
2022/10/28 00:39:00;;;;;;;20.42;10.15;;;;;;;;;;5069462;28;20045;-66
2022/10/28 00:41:36;;;;;;;18.60;9.77;;;;;;;;;;5069686;28;20036;-66
2022/10/28 00:44:22;;;;;;;26.65;10.65;;;;;;;;;;5070405;28;20063;-66
2022/10/28 00:46:50;;;;;;;19.63;10.20;;;;;;;;;;5067962;28;20032;-66
2022/10/28 00:49:29;;;;;;;20.85;10.45;;;;;;;;;;5068196;28;20443;-66
2022/10/28 00:52:22;;;;;;;18.65;11.18;;;;;;;;;;5065846;28;20040;-66
2022/10/28 00:54:49;;;;;;;20.77;10.27;;;;;;;;;;5067844;28;20048;-66
2022/10/28 00:57:16;;;;;;;16.95;10.60;;;;;;;;;;5069451;28;20425;-66
2022/10/28 00:59:45;;;;;;;20.77;10.48;;;;;;;;;;5070075;28;20036;-66
2022/10/28 01:02:11;;;;;;;19.65;10.20;;;;;;;;;;5069424;28;20539;-66
2022/10/28 01:04:38;;;;;;;21.98;10.85;;;;;;;;;;5066399;28;20033;-66
2022/10/28 01:07:04;;;;;;;24.42;11.25;;;;;;;;;;5064062;28;20037;-66
2022/10/28 01:09:30;;;;;;;17.27;9.70;;;;;;;;;;5069905;28;20040;-66
2022/10/28 01:12:02;;;;;;;20.08;10.40;;;;;;;;;;5068744;28;20063;-66
2022/10/28 01:14:28;;;;;;;18.52;9.35;;;;;;;;;;5070706;28;20450;-66
2022/10/28 01:17:03;;;;;;;19.05;10.40;;;;;;;;;;5068256;28;20036;-66
2022/10/28 01:19:29;;;;;;;17.10;9.77;;;;;;;;;;5069226;28;20076;-66
2022/10/28 01:22:10;;;;;;;17.45;10.10;;;;;;;;;;5069182;28;20082;-66
2022/10/28 01:24:54;;;;;;;23.80;10.70;;;;;;;;;;5074576;28;20111;-66
2022/10/28 01:27:20;;;;;;;18.20;10.25;;;;;;;;;;5075957;28;20482;-66
2022/10/28 01:29:59;;;;;;;16.25;9.10;;;;;;;;;;5075286;28;20086;-66
2022/10/28 01:32:47;;;;;;;20.23;9.95;;;;;;;;;;5075772;28;20040;-66
2022/10/28 01:35:18;;;;;;;18.30;9.90;;;;;;;;;;5077951;28;20040;-66
2022/10/28 01:37:52;;;;;;;16.42;10.05;;;;;;;;;;5075406;28;20083;-66
2022/10/28 01:40:31;;;;;;;15.85;8.95;;;;;;;;;;5079759;28;20528;-65
2022/10/28 01:43:15;;;;;;;15.68;8.80;;;;;;;;;;5077874;28;20039;-66
2022/10/28 01:46:02;;;;;;;17.25;9.07;;;;;;;;;;5074771;28;20033;-66
2022/10/28 01:48:34;;;;;;;19.08;8.18;;;;;;;;;;5074950;28;20047;-66
2022/10/28 01:51:08;;;;;;;21.67;10.07;;;;;;;;;;5083894;28;20036;-66
2022/10/28 01:53:37;;;;;;;16.13;9.48;;;;;;;;;;5074613;28;20081;-66
2022/10/28 01:56:07;;;;;;;17.00;10.52;;;;;;;;;;5083386;28;20580;-66
2022/10/28 01:58:33;;;;;;;19.65;10.07;;;;;;;;;;5078602;28;20486;-65
2022/10/28 02:01:00;;;;;;;19.27;10.05;;;;;;;;;;5073180;28;20135;-66
2022/10/28 02:03:27;;;;;;;19.55;9.73;;;;;;;;;;5088387;28;20561;-66
2022/10/28 02:05:55;;;;;;;18.20;9.52;;;;;;;;;;5076021;28;20037;-66
2022/10/28 02:08:44;;;;;;;19.95;9.95;;;;;;;;;;5075907;28;20139;-66
2022/10/28 02:11:36;;;;;;;14.90;9.88;;;;;;;;;;5066143;28;20045;-66
2022/10/28 02:14:11;;;;;;;17.58;10.38;;;;;;;;;;5064629;28;20131;-66
2022/10/28 02:16:43;;;;;;;17.15;10.27;;;;;;;;;;5068619;28;20517;-66
2022/10/28 02:19:26;;;;;;;18.27;10.25;;;;;;;;;;5077070;28;20048;-66
2022/10/28 02:22:11;;;;;;;20.38;9.88;;;;;;;;;;5074018;28;20041;-66
2022/10/28 02:24:37;;;;;;;18.98;9.75;;;;;;;;;;5066381;28;20041;-66
2022/10/28 02:27:35;;;;;;;20.05;9.70;;;;;;;;;;5067518;28;20039;-66
2022/10/28 02:30:05;;;;;;;16.50;8.45;;;;;;;;;;5034483;28;20052;-66
2022/10/28 02:32:33;;;;;;;20.35;9.00;;;;;;;;;;5072748;28;20393;-66
2022/10/28 02:35:00;;;;;;;16.70;8.73;;;;;;;;;;5076118;28;20040;-66
2022/10/28 02:37:29;;;;;;;14.55;8.90;;;;;;;;;;5064633;28;20147;-66
2022/10/28 02:39:57;;;;;;;16.27;9.18;;;;;;;;;;5072851;28;20048;-66
2022/10/28 02:42:25;;;;;;;16.23;9.52;;;;;;;;;;5070465;28;20496;-66
2022/10/28 02:44:59;;;;;;;16.88;9.05;;;;;;;;;;5074139;28;20039;-66
2022/10/28 02:47:28;;;;;;;13.50;8.00;;;;;;;;;;5072096;28;20123;-66
2022/10/28 02:49:57;;;;;;;12.55;8.38;;;;;;;;;;5070897;28;20051;-66
2022/10/28 02:52:24;;;;;;;11.75;7.22;;;;;;;;;;5072209;28;20162;-66
2022/10/28 02:54:55;;;;;;;9.18;6.45;;;;;;;;;;5073196;28;20044;-66
2022/10/28 02:57:21;;;;;;;;;;;;;;;;;;5064949;28;20048;-66
2022/10/28 02:59:52;;;;;;;14.48;7.50;;;;;;;;;;5067607;28;19932;-66
2022/10/28 03:02:18;;;;;;;9.85;7.30;;;;;;;;;;5069720;28;20113;-66
2022/10/28 03:04:44;;;;;;;9.50;7.15;;;;;;;;;;5066048;28;20506;-66
2022/10/28 03:07:10;;;;;;;12.68;7.97;;;;;;;;;;5071955;28;20045;-66
2022/10/28 03:09:36;;;;;;;12.18;8.10;;;;;;;;;;5076384;28;20036;-66
2022/10/28 03:12:02;;;;;;;12.93;8.13;;;;;;;;;;5072902;28;20048;-66
2022/10/28 03:14:28;;;;;;;15.50;9.48;;;;;;;;;;5071217;28;20040;-66
2022/10/28 03:16:54;;;;;;;12.90;9.20;;;;;;;;;;5072645;28;20433;-66
2022/10/28 03:19:20;;;;;;;11.38;7.82;;;;;;;;;;5065500;28;20053;-66
2022/10/28 03:21:46;;;;;;;19.20;9.65;;;;;;;;;;5070455;28;20060;-66
2022/10/28 03:24:12;;;;;;;16.77;10.95;;;;;;;;;;5072241;28;20041;-66
2022/10/28 03:26:38;;;;;;;19.15;10.70;;;;;;;;;;5069752;28;20059;-66
2022/10/28 03:29:04;;;;;;;15.73;9.23;;;;;;;;;;5065682;28;20083;-66
2022/10/28 03:31:30;;;;;;;18.13;9.50;;;;;;;;;;5080848;28;20505;-66
2022/10/28 03:33:56;;;;;;;24.27;10.38;;;;;;;;;;5078275;28;20115;-66
2022/10/28 03:36:22;;;;;;;17.40;11.13;;;;;;;;;;5077901;28;20570;-66
2022/10/28 03:38:48;;;;;;;17.55;10.18;;;;;;;;;;5071781;28;20044;-66
2022/10/28 03:41:14;;;;;;;18.00;10.30;;;;;;;;;;5070549;28;20043;-66
2022/10/28 03:43:40;;;;;;;15.60;9.40;;;;;;;;;;5069996;28;20032;-66
2022/10/28 03:46:06;;;;;;;18.52;9.65;;;;;;;;;;5066902;28;20095;-65
2022/10/28 03:48:32;;;;;;;14.75;9.23;;;;;;;;;;5072546;28;20040;-66
2022/10/28 03:50:58;;;;;;;19.00;10.13;;;;;;;;;;5071994;28;20114;-65
2022/10/28 03:53:24;;;;;;;15.00;10.07;;;;;;;;;;5076898;28;20079;-66
2022/10/28 03:55:57;;;;;;;14.88;9.32;;;;;;;;;;5064538;28;20473;-66
2022/10/28 03:58:23;;;;;;;14.50;9.50;;;;;;;;;;5072459;28;20033;-65
2022/10/28 04:00:49;;;;;;;11.85;8.85;;;;;;;;;;5067823;28;20044;-66
2022/10/28 04:03:16;;;;;;;12.82;9.05;;;;;;;;;;5059012;28;20044;-66
2022/10/28 04:05:42;;;;;;;9.48;7.45;;;;;;;;;;5078423;28;20041;-66
2022/10/28 04:08:09;;;;;;;12.93;7.88;;;;;;;;;;5055892;28;20037;-66
2022/10/28 04:10:35;;;;;;;11.07;7.38;;;;;;;;;;5058547;28;20040;-66
2022/10/28 04:13:01;;;;;;;10.95;7.93;;;;;;;;;;5063575;28;20044;-66
2022/10/28 04:15:27;;;;;;;16.65;10.15;;;;;;;;;;5071134;28;20490;-66
2022/10/28 04:17:53;;;;;;;16.85;9.15;;;;;;;;;;5060705;28;20089;-66
2022/10/28 04:20:19;;;;;;;16.08;9.80;;;;;;;;;;5067738;28;20119;-65
2022/10/28 04:22:45;;;;;;;17.05;9.40;;;;;;;;;;5071515;28;20040;-66
2022/10/28 04:25:11;;;;;;;15.15;9.82;;;;;;;;;;5071503;28;20036;-66
2022/10/28 04:27:37;;;;;;;15.18;9.07;;;;;;;;;;5069917;28;20078;-66
2022/10/28 04:30:04;;;;;;;15.80;9.88;;;;;;;;;;5069494;28;20045;-66
2022/10/28 04:32:30;;;;;;;17.67;10.00;;;;;;;;;;5069551;28;20116;-66
2022/10/28 04:34:56;;;;;;;18.27;10.48;;;;;;;;;;5070099;28;20043;-66
2022/10/28 04:37:22;;;;;;;17.25;10.10;;;;;;;;;;5070171;28;20040;-66
2022/10/28 04:39:48;;;;;;;17.95;10.25;;;;;;;;;;5067474;28;20040;-65
2022/10/28 04:42:14;;;;;;;17.35;9.93;;;;;;;;;;5067200;28;20123;-66
2022/10/28 04:44:40;;;;;;;19.60;10.38;;;;;;;;;;5069368;28;20123;-66
2022/10/28 04:47:06;;;;;;;15.43;9.55;;;;;;;;;;5071058;28;20047;-66
2022/10/28 04:49:32;;;;;;;19.70;9.48;;;;;;;;;;5066958;28;20056;-65
2022/10/28 04:51:58;;;;;;;18.48;9.77;;;;;;;;;;5078775;28;20063;-66
2022/10/28 04:54:25;;;;;;;16.20;9.77;;;;;;;;;;5069447;28;20040;-65
2022/10/28 04:56:51;;;;;;;16.73;9.18;;;;;;;;;;5071001;28;20040;-65
2022/10/28 04:59:17;;;;;;;13.98;8.23;;;;;;;;;;5069171;28;20036;-65
2022/10/28 05:01:43;;;;;;;18.90;8.75;;;;;;;;;;5067912;28;20037;-66
2022/10/28 05:04:09;;;;;;;15.55;8.45;;;;;;;;;;5069634;28;20094;-66
2022/10/28 05:06:35;;;;;;;15.05;8.77;;;;;;;;;;5067495;28;20089;-66
2022/10/28 05:09:01;;;;;;;17.83;9.55;;;;;;;;;;5067001;28;20421;-66
2022/10/28 05:11:27;;;;;;;16.40;8.75;;;;;;;;;;5068314;28;20056;-66
2022/10/28 05:13:53;;;;;;;18.05;9.27;;;;;;;;;;5069907;28;20436;-66
2022/10/28 05:16:19;;;;;;;19.70;9.75;;;;;;;;;;5069406;28;20048;-66
2022/10/28 05:18:45;;;;;;;16.92;9.07;;;;;;;;;;5064917;28;20036;-66
2022/10/28 05:21:11;;;;;;;17.35;8.75;;;;;;;;;;5067498;28;20402;-66
2022/10/28 05:23:37;;;;;;;22.20;10.13;;;;;;;;;;5068870;28;20500;-65
2022/10/28 05:26:03;;;;;;;17.58;9.63;;;;;;;;;;5069753;28;20083;-65
2022/10/28 05:28:29;;;;;;;18.08;9.55;;;;;;;;;;5069711;28;20040;-66
2022/10/28 05:30:55;;;;;;;20.63;10.07;;;;;;;;;;5069402;28;20126;-66
2022/10/28 05:33:21;;;;;;;19.83;9.50;;;;;;;;;;5062873;28;20092;-66
2022/10/28 05:35:47;;;;;;;18.77;9.40;;;;;;;;;;5067242;28;20040;-66
2022/10/28 05:38:14;;;;;;;16.83;8.82;;;;;;;;;;5066198;28;20063;-66
2022/10/28 05:40:39;;;;;;;19.90;9.10;;;;;;;;;;5067629;28;20036;-66
2022/10/28 05:43:06;;;;;;;16.65;9.57;;;;;;;;;;5066389;28;20036;-66
2022/10/28 05:45:32;;;;;;;19.48;8.88;;;;;;;;;;5064254;28;20213;-66
2022/10/28 05:47:58;;;;;;;19.08;8.35;;;;;;;;;;5067419;28;20134;-65
2022/10/28 05:50:24;;;;;;;18.00;9.38;;;;;;;;;;5068651;28;20305;-66
2022/10/28 05:52:54;;;;;;;23.38;9.82;;;;;;;;;;5064988;28;20215;-66
2022/10/28 05:55:21;;;;;;;17.77;8.35;;;;;;;;;;5058124;28;20066;-66
2022/10/28 05:57:47;;;;;;;15.75;9.27;;;;;;;;;;5060640;28;20045;-65
2022/10/28 06:00:14;;;;;;;19.00;9.07;;;;;;;;;;5066931;28;20440;-65
2022/10/28 06:02:40;;;;;;;15.85;8.80;;;;;;;;;;5066323;28;20044;-66
2022/10/28 06:05:06;;;;;;;16.10;9.10;;;;;;;;;;5071373;28;20036;-66
2022/10/28 06:07:33;;;;;;;16.45;8.63;;;;;;;;;;5065503;28;20044;-66
2022/10/28 06:09:59;;;;;;;17.67;9.68;;;;;;;;;;5067736;28;20040;-66
2022/10/28 06:12:25;;;;;;;20.33;8.60;;;;;;;;;;5073219;28;20051;-66
2022/10/28 06:14:51;;;;;;;20.13;9.23;;;;;;;;;;5069478;28;20116;-66
2022/10/28 06:17:17;;;;;;;19.27;8.68;;;;;;;;;;5073362;28;20124;-66
2022/10/28 06:19:43;;;;;;;18.77;9.48;;;;;;;;;;5066703;28;20530;-65
2022/10/28 06:22:09;;;;;;;16.00;8.43;;;;;;;;;;5066087;28;20089;-66
2022/10/28 06:24:35;;;;;;;21.42;8.95;;;;;;;;;;5069818;28;20390;-65
2022/10/28 06:27:01;;;;;;;19.50;8.75;;;;;;;;;;5065618;28;20033;-66
2022/10/28 06:29:27;;;;;;;18.17;9.02;;;;;;;;;;5072368;28;20464;-66
2022/10/28 06:31:53;;;;;;;19.40;9.18;;;;;;;;;;5081908;28;20033;-66
2022/10/28 06:34:19;;;;;;;21.92;8.88;;;;;;;;;;5083569;28;20054;-66
2022/10/28 06:36:45;;;;;;;19.10;9.30;;;;;;;;;;5070649;28;20388;-66
2022/10/28 06:39:11;;;;;;;15.82;9.25;;;;;;;;;;5073665;28;20041;-66
2022/10/28 06:41:37;;;;;;;16.40;7.68;;;;;;;;;;5073215;28;20123;-66
2022/10/28 06:44:03;;;;;;;20.02;9.30;;;;;;;;;;5062268;28;20067;-66
2022/10/28 06:46:29;;;;;;;23.73;9.77;;;;;;;;;;5058054;28;20494;-66
2022/10/28 06:48:56;;;;;;;17.58;9.15;;;;;;;;;;5069109;28;20031;-66
2022/10/28 06:51:22;;;;;;;17.60;8.70;;;;;;;;;;5069323;28;20063;-66
2022/10/28 06:53:49;;;;;;;18.88;9.18;;;;;;;;;;5063969;28;20098;-66
2022/10/28 06:56:15;;;;;;;18.35;9.15;;;;;;;;;;5077613;28;20041;-66
2022/10/28 06:58:41;;;;;;;20.50;9.43;;;;;;;;;;5068950;28;20375;-66
2022/10/28 07:01:07;;;;;;;14.43;8.27;;;;;;;;;;5067612;28;20045;-66
2022/10/28 07:03:33;;;;;;;23.60;9.77;;;;;;;;;;5071777;28;20653;-66
2022/10/28 07:05:59;;;;;;;19.70;8.93;;;;;;;;;;5062052;28;20044;-66
2022/10/28 07:08:28;;;;;;;17.67;8.80;;;;;;;;;;5071787;28;20040;-66
2022/10/28 07:10:55;;;;;;;20.92;9.23;;;;;;;;;;5074462;28;20123;-66
2022/10/28 07:13:21;;;;;;;18.13;9.10;;;;;;;;;;5073224;28;20166;-66
2022/10/28 07:15:54;;;;;;;18.55;9.25;;;;;;;;;;5071167;28;20545;-66
2022/10/28 07:18:21;;;;;;;19.77;9.05;;;;;;;;;;5066722;28;20041;-67
2022/10/28 07:20:47;;;;;;;19.23;9.07;;;;;;;;;;5067225;28;20037;-66
2022/10/28 07:23:13;;;;;;;14.75;8.90;;;;;;;;;;5068858;28;20041;-66
2022/10/28 07:25:39;;;;;;;18.45;8.73;;;;;;;;;;5069242;28;20093;-66
2022/10/28 07:28:05;;;;;;;16.00;8.68;;;;;;;;;;5071283;28;20490;-66
2022/10/28 07:30:31;;;;;;;19.70;9.40;;;;;;;;;;5089026;28;20067;-66
2022/10/28 07:32:59;;;;;;;18.58;8.82;;;;;;;;;;5070279;28;20111;-66
2022/10/28 07:35:26;;;;;;;18.20;8.20;;;;;;;;;;5070555;28;20072;-66
2022/10/28 07:37:52;;;;;;;16.42;7.97;;;;;;;;;;5068978;28;20434;-66
2022/10/28 07:40:19;;;;;;;19.60;9.13;;;;;;;;;;5069014;28;20071;-66
2022/10/28 07:42:45;;;;;;;18.55;9.02;;;;;;;;;;5065842;28;20478;-66
2022/10/28 07:45:11;;;;;;;21.55;8.27;;;;;;;;;;5067106;28;20082;-67
2022/10/28 07:47:37;;;;;;;14.65;8.45;;;;;;;;;;5066903;28;20033;-67
2022/10/28 07:50:03;;;;;;;18.85;8.63;;;;;;;;;;5069452;28;20414;-66
2022/10/28 07:52:29;;;;;;;15.15;8.80;;;;;;;;;;5066015;28;20041;-66
2022/10/28 07:54:55;;;;;;;16.33;8.05;;;;;;;;;;5065999;28;20085;-66
2022/10/28 07:57:21;;;;;;;17.65;7.68;;;;;;;;;;5072322;28;20135;-66
2022/10/28 07:59:47;;;;;;;15.05;7.82;;;;;;;;;;5066231;28;20177;-66
2022/10/28 08:02:20;;;;;;;19.95;8.50;;;;;;;;;;5070371;28;20127;-66
2022/10/28 08:04:46;;;;;;;16.95;8.02;;;;;;;;;;5069693;28;20108;-66
2022/10/28 08:07:12;;;;;;;15.05;7.63;;;;;;;;;;5066074;28;20040;-65
2022/10/28 08:09:39;;;;;;;17.08;7.72;;;;;;;;;;5066868;28;20033;-66
2022/10/28 08:12:05;;;;;;;22.85;8.75;;;;;;;;;;5065159;28;20479;-66
2022/10/28 08:14:31;;;;;;;16.85;8.02;;;;;;;;;;5069750;28;20043;-66
2022/10/28 08:16:57;;;;;;;14.95;8.25;;;;;;;;;;5064100;28;20036;-66
2022/10/28 08:19:23;;;;;;;18.80;7.85;;;;;;;;;;5057147;28;20079;-66
2022/10/28 08:21:49;;;;;;;17.80;8.50;;;;;;;;;;5066466;28;20121;-66
2022/10/28 08:24:15;;;;;;;16.95;7.85;;;;;;;;;;5068429;28;20044;-66
2022/10/28 08:26:41;;;;;;;17.95;7.68;;;;;;;;;;5069701;28;20036;-66
2022/10/28 08:29:09;;;;;;;16.88;8.00;;;;;;;;;;5070734;28;20485;-66
2022/10/28 08:31:35;;;;;;;18.13;8.05;;;;;;;;;;5058822;28;25464;-65
2022/10/28 08:34:01;;;;;;;15.30;8.10;;;;;;;;;;5058675;28;20406;-65
2022/10/28 08:36:27;;;;;;;19.20;7.70;;;;;;;;;;5064898;28;20055;-66
2022/10/28 08:38:53;;;;;;;17.55;7.35;;;;;;;;;;5061966;28;20458;-65
2022/10/28 08:41:38;;;;;;;16.50;7.65;;;;;;;;;;5066313;28;20123;-65
2022/10/28 08:44:07;;;;;;;16.60;7.45;;;;;;;;;;5067817;28;20067;-65
2022/10/28 08:46:53;;;;;;;15.73;7.55;;;;;;;;;;5061196;28;20033;-65
2022/10/28 08:49:21;;;;;;;16.45;8.05;;;;;;;;;;5043248;28;20446;-65
2022/10/28 08:51:56;;;;;;;20.83;7.70;;;;;;;;;;5067891;28;20078;-65
2022/10/28 08:54:25;;;;;;;17.23;7.40;;;;;;;;;;5062227;28;20509;-65
2022/10/28 08:56:53;;;;;;;20.65;7.80;;;;;;;;;;5050537;28;20118;-65
2022/10/28 08:59:40;;;;;;;16.75;7.45;;;;;;;;;;5064082;28;20052;-65
2022/10/28 09:02:25;;;;;;;15.13;7.65;;;;;;;;;;5061270;28;20110;-65
2022/10/28 09:05:20;;;;;;;16.48;7.13;;;;;;;;;;5070248;28;20078;-65
2022/10/28 09:07:46;;;;;;;21.77;8.18;;;;;;;;;;5056561;28;20044;-65
2022/10/28 09:10:14;;;;;;;16.92;7.25;;;;;;;;;;5066182;28;20494;-65
2022/10/28 09:12:53;;;;;;;15.75;7.40;;;;;;;;;;5069948;28;20513;-65
2022/10/28 09:15:30;;;;;;;18.10;7.50;;;;;;;;;;5065864;28;20044;-65
2022/10/28 09:18:03;;;;;;;17.80;6.65;;;;;;;;;;5066933;28;20036;-65
2022/10/28 09:20:33;;;;;;;16.58;7.00;;;;;;;;;;5060486;28;20201;-65
2022/10/28 09:23:07;;;;;;;15.18;6.57;;;;;;;;;;5068415;28;20032;-65
2022/10/28 09:25:42;;;;;;;18.85;7.68;;;;;;;;;;5061070;28;20036;-65
2022/10/28 09:28:23;;;;;;;19.67;7.05;;;;;;;;;;5066783;28;20041;-66
2022/10/28 09:31:13;;;;;;;15.43;6.53;;;;;;;;;;5067908;28;20123;-65
2022/10/28 09:33:46;;;;;;;20.35;7.22;;;;;;;;;;5066412;28;20040;-65
2022/10/28 09:36:15;;;;;;;16.00;6.22;;;;;;;;;;5060501;28;20036;-65
2022/10/28 09:38:41;;;;;;;15.32;6.45;;;;;;;;;;5066083;28;20052;-65
2022/10/28 09:41:11;;;;;;;13.80;7.00;;;;;;;;;;5065767;28;20074;-65
2022/10/28 09:43:44;;;;;;;14.75;6.60;;;;;;;;;;5068467;28;20024;-65
2022/10/28 09:46:17;;;;;;;17.00;6.78;;;;;;;;;;5071757;28;20039;-65
2022/10/28 09:48:51;;;;;;;14.20;6.10;;;;;;;;;;5061226;28;20564;-65
2022/10/28 09:51:27;;;;;;;14.82;7.05;;;;;;;;;;5060363;28;20041;-65
2022/10/28 09:53:53;;;;;;;22.13;7.07;;;;;;;;;;5063586;28;20048;-64
2022/10/28 09:56:19;;;;;;;16.05;6.60;;;;;;;;;;5073473;28;20097;-65
2022/10/28 09:58:46;;;;;;;13.63;7.00;;;;;;;;;;5039244;28;20083;-65
2022/10/28 10:01:13;;;;;;;19.08;6.70;;;;;;;;;;5070966;28;20082;-64
2022/10/28 10:03:40;;;;;;;14.90;6.88;;;;;;;;;;5067937;28;20052;-64
2022/10/28 10:06:11;;;;;;;16.48;7.38;;;;;;;;;;5068265;28;20513;-64
2022/10/28 10:08:38;;;;;;;16.25;6.72;;;;;;;;;;5052833;28;20048;-65
2022/10/28 10:11:05;;;;;;;15.82;6.72;;;;;;;;;;5068498;28;20047;-64
2022/10/28 10:13:39;;;;;;;16.08;7.00;;;;;;;;;;5075083;28;20040;-65
2022/10/28 10:16:17;;;;;;;17.73;7.15;;;;;;;;;;5074959;28;20501;-64
2022/10/28 10:18:47;;;;;;;17.95;7.35;;;;;;;;;;5065175;28;20506;-64
2022/10/28 10:21:15;;;;;;;15.20;6.57;;;;;;;;;;5069168;28;20048;-64
2022/10/28 10:23:41;;;;;;;12.88;6.68;;;;;;;;;;5065647;28;20059;-64
2022/10/28 10:26:08;;;;;;;14.90;6.22;;;;;;;;;;5070228;28;20075;-64
2022/10/28 10:28:36;;;;;;;18.38;7.38;;;;;;;;;;5072372;28;20101;-64
2022/10/28 10:31:05;;;;;;;15.73;6.28;;;;;;;;;;5073436;28;20028;-64
2022/10/28 10:33:35;;;;;;;16.67;7.15;;;;;;;;;;5073522;28;20040;-64
2022/10/28 10:36:02;;;;;;;17.58;7.13;;;;;;;;;;5065013;28;20033;-64
2022/10/28 10:38:29;;;;;;;18.60;6.85;;;;;;;;;;5072515;28;20064;-64
2022/10/28 10:40:55;;;;;;;15.30;6.60;;;;;;;;;;5069519;28;20497;-64
2022/10/28 10:43:39;;;;;;;11.88;6.35;;;;;;;;;;5060346;28;20036;-64
2022/10/28 10:46:12;;;;;;;20.48;6.72;;;;;;;;;;5073095;28;20444;-64
2022/10/28 10:48:38;;;;;;;17.90;7.20;;;;;;;;;;5056033;28;20120;-65
2022/10/28 10:51:06;;;;;;;13.27;6.10;;;;;;;;;;5067088;28;20131;-64
2022/10/28 10:53:32;;;;;;;15.18;6.78;;;;;;;;;;5071042;28;20492;-64
2022/10/28 10:56:01;;;;;;;17.13;6.82;;;;;;;;;;5074114;28;20131;-64
2022/10/28 10:58:28;;;;;;;14.95;6.07;;;;;;;;;;5069315;28;20549;-64
2022/10/28 11:00:55;;;;;;;18.90;6.47;;;;;;;;;;5067521;28;20410;-65
2022/10/28 11:03:26;;;;;;;15.63;6.85;;;;;;;;;;5074246;28;20127;-64
2022/10/28 11:05:55;;;;;;;20.30;7.40;;;;;;;;;;5069919;28;20071;-64
2022/10/28 11:08:41;;;;;;;16.35;6.38;;;;;;;;;;5062453;28;20486;-64
2022/10/28 11:11:07;;;;;;;16.13;6.50;;;;;;;;;;5071689;28;20047;-64
2022/10/28 11:13:33;;;;;;;13.68;5.70;;;;;;;;;;5071941;28;20032;-64
2022/10/28 11:16:07;;;;;;;16.02;6.10;;;;;;;;;;5068253;28;20037;-64
2022/10/28 11:18:40;;;;;;;20.73;6.75;;;;;;;;;;5063883;28;20036;-64
2022/10/28 11:21:06;;;;;;;17.88;6.10;;;;;;;;;;5073408;28;20072;-64
2022/10/28 11:23:43;;;;;;;12.48;5.72;;;;;;;;;;5063090;28;20774;-64
2022/10/28 11:26:13;;;;;;;19.75;6.35;;;;;;;;;;5068629;28;20057;-64
2022/10/28 11:28:58;;;;;;;13.48;5.68;;;;;;;;;;5072153;28;20086;-64
2022/10/28 11:31:30;;;;;;;14.52;6.45;;;;;;;;;;5071930;28;20378;-64
2022/10/28 11:34:02;;;;;;;17.50;6.20;;;;;;;;;;5062241;28;20051;-64
2022/10/28 11:36:31;;;;;;;16.13;6.75;;;;;;;;;;5069935;28;20040;-65
2022/10/28 11:39:12;;;;;;;12.43;5.68;;;;;;;;;;5071736;28;20053;-64
2022/10/28 11:42:03;;;;;;;14.57;5.78;;;;;;;;;;5070839;28;20100;-64
2022/10/28 11:44:29;;;;;;;;;;;;;;;;;;5068419;28;20119;-64
2022/10/28 11:46:55;;;;;;;;;;;;;;;;;;5073527;28;20028;-64
2022/10/28 11:49:21;;;;;;;;;;;;;;;;;;5071920;28;20006;-63
2022/10/28 11:51:47;;;;;;;;;;;;;;;;;;5071988;28;19916;-64
2022/10/28 11:54:13;;;;;;;;;;;;;;;;;;5062951;28;19941;-64
2022/10/28 11:56:39;;;;;;;;;;;;;;;;;;5070630;28;19920;-64
2022/10/28 11:59:05;;;;;;;;;;;;;;;;;;5068221;28;19962;-64
2022/10/28 12:01:31;;;;;;;;;;;;;;;;;;5069126;28;19931;-64
2022/10/28 12:03:57;;;;;;;;;;;;;;;;;;5070162;28;19916;-64
2022/10/28 12:06:23;;;;;;;;;;;;;;;;;;5070618;28;20007;-64
2022/10/28 12:08:49;;;;;;;;;;;;;;;;;;5068439;28;19963;-65
2022/10/28 12:11:15;;;;;;;;;;;;;;;;;;5071342;28;19963;-64
2022/10/28 12:13:40;;;;;;;;;;;;;;;;;;5064139;28;19924;-65
2022/10/28 12:16:06;;;;;;;;;;;;;;;;;;5066991;28;20420;-65
2022/10/28 12:18:32;;;;;;;;;;;;;;;;;;5071166;28;19920;-65
2022/10/28 12:20:58;;;;;;;;;;;;;;;;;;5071490;28;19926;-64
2022/10/28 12:23:24;;;;;;;;;;;;;;;;;;5067281;28;20017;-64
2022/10/28 12:25:51;;;;;;;;;;;;;;;;;;5062068;28;19924;-65
2022/10/28 12:28:17;;;;;;;;;;;;;;;;;;5067741;28;19927;-65
2022/10/28 12:30:43;;;;;;;;;;;;;;;;;;5068558;28;19920;-65
2022/10/28 12:33:09;;;;;;;;;;;;;;;;;;5067249;28;19966;-66
2022/10/28 12:35:35;;;;;;;;;;;;;;;;;;5065599;28;20313;-65
2022/10/28 12:38:01;;;;;;;;;;;;;;;;;;5067808;28;19923;-65
2022/10/28 12:40:27;;;;;;;;;;;;;;;;;;5067954;28;19981;-66
2022/10/28 12:42:53;;;;;;;;;;;;;;;;;;5061429;28;19920;-66
2022/10/28 12:45:19;;;;;;;;;;;;;;;;;;5069951;28;19924;-65
2022/10/28 12:47:45;;;;;;;;;;;;;;;;;;5061993;28;19920;-66
2022/10/28 12:50:11;;;;;;;;;;;;;;;;;;5069395;28;19916;-66
2022/10/28 12:52:37;;;;;;;;;;;;;;;;;;5065298;28;20003;-65
2022/10/28 12:55:03;;;;;;;;;;;;;;;;;;5064278;28;20413;-65
2022/10/28 12:57:29;;;;;;;;;;;;;;;;;;5068677;28;20489;-66
2022/10/28 12:59:55;;;;;;;;;;;;;;;;;;5070554;28;20014;-66
2022/10/28 13:02:21;;;;;;;;;;;;;;;;;;5068769;28;20295;-66
2022/10/28 13:04:47;;;;;;;;;;;;;;;;;;5064445;28;19916;-65
2022/10/28 13:07:13;;;;;;;;;;;;;;;;;;5071721;28;20340;-65
2022/10/28 13:09:39;;;;;;;;;;;;;;;;;;5072008;28;19942;-66
2022/10/28 13:12:05;;;;;;;;;;;;;;;;;;5058576;28;20025;-65
2022/10/28 13:14:30;;;;;;;;;;;;;;;;;;5068983;28;19917;-65
2022/10/28 13:16:56;;;;;;;;;;;;;;;;;;5070086;28;19923;-66
2022/10/28 13:19:22;;;;;;;;;;;;;;;;;;5071612;28;19920;-65
2022/10/28 13:21:48;;;;;;;;;;;;;;;;;;5068830;28;19917;-65
2022/10/28 13:24:14;;;;;;;;;;;;;;;;;;5070440;28;19916;-65
2022/10/28 13:26:40;;;;;;;;;;;;;;;;;;5065513;28;19920;-65
2022/10/28 13:29:06;;;;;;;;;;;;;;;;;;5067640;28;20003;-65
2022/10/28 13:31:32;;;;;;;;;;;;;;;;;;5069712;28;20328;-65
2022/10/28 13:33:58;;;;;;;;;;;;;;;;;;5069563;28;19938;-65
2022/10/28 13:36:24;;;;;;;;;;;;;;;;;;5070815;28;19923;-65
2022/10/28 13:38:50;;;;;;;;;;;;;;;;;;5069537;28;20464;-65
2022/10/28 13:41:15;;;;;;;;;;;;;;;;;;5067586;28;20340;-65
2022/10/28 13:43:41;;;;;;;;;;;;;;;;;;5064222;28;19959;-65
2022/10/28 13:46:07;;;;;;;;;;;;;;;;;;5069729;28;20445;-65
2022/10/28 13:48:33;;;;;;;;;;;;;;;;;;5071360;28;19916;-65
2022/10/28 13:50:59;;;;;;;;;;;;;;;;;;5070583;28;19923;-65
2022/10/28 13:53:25;;;;;;;;;;;;;;;;;;5069868;28;19927;-65
2022/10/28 13:55:51;;;;;;;;;;;;;;;;;;5068627;28;19916;-65
2022/10/28 13:58:17;;;;;;;;;;;;;;;;;;5071111;28;19927;-65
2022/10/28 14:00:43;;;;;;;;;;;;;;;;;;5069483;28;19946;-64
2022/10/28 14:03:09;;;;;;;;;;;;;;;;;;5065411;28;19935;-64
2022/10/28 14:05:35;;;;;;;;;;;;;;;;;;5069228;28;19916;-65
2022/10/28 14:08:01;;;;;;;;;;;;;;;;;;5070395;28;19916;-64
2022/10/28 14:10:27;;;;;;;;;;;;;;;;;;5070163;28;20232;-65
2022/10/28 14:12:53;;;;;;;;;;;;;;;;;;5067786;28;19942;-65
2022/10/28 14:15:19;;;;;;;;;;;;;;;;;;5071206;28;19926;-64
2022/10/28 14:17:45;;;;;;;;;;;;;;;;;;5070113;28;19916;-64
2022/10/28 14:20:11;;;;;;;;;;;;;;;;;;5060025;28;19920;-65
2022/10/28 14:22:37;;;;;;;;;;;;;;;;;;5071513;28;19917;-65
2022/10/28 14:25:03;;;;;;;;;;;;;;;;;;5070882;28;20392;-64
2022/10/28 14:27:29;;;;;;;;;;;;;;;;;;5069702;28;20051;-65
2022/10/28 14:29:55;;;;;;;;;;;;;;;;;;5066296;28;19916;-65
2022/10/28 14:32:21;;;;;;;;;;;;;;;;;;5062077;28;20286;-65
2022/10/28 14:34:47;;;;;;;;;;;;;;;;;;5066450;28;20356;-65
2022/10/28 14:37:13;;;;;;;;;;;;;;;;;;5065785;28;19956;-65
2022/10/28 14:39:40;;;;;;;;;;;;;;;;;;5073008;28;19924;-65
2022/10/28 14:42:06;;;;;;;;;;;;;;;;;;5072899;28;19916;-65
2022/10/28 14:44:32;;;;;;;;;;;;;;;;;;5070383;28;19972;-65
2022/10/28 14:46:58;;;;;;;;;;;;;;;;;;5073469;28;19955;-65
2022/10/28 14:49:24;;;;;;;;;;;;;;;;;;5071771;28;19925;-65
2022/10/28 14:51:50;;;;;;;;;;;;;;;;;;5071949;28;19967;-65
2022/10/28 14:54:16;;;;;;;;;;;;;;;;;;5070758;28;19917;-65
2022/10/28 14:56:42;;;;;;;;;;;;;;;;;;5067076;28;19916;-65
2022/10/28 14:59:08;;;;;;;;;;;;;;;;;;5065702;28;19916;-65
2022/10/28 15:01:34;;;;;;;;;;;;;;;;;;5073804;28;20014;-65
2022/10/28 15:04:00;;;;;;;;;;;;;;;;;;5072238;28;19920;-65